createdAt,value
2022-09-14T00:01:52.252Z,2.15
2022-09-14T00:03:58.251Z,2.38
2022-09-14T00:06:05.830Z,2.90
2022-09-14T00:08:10.368Z,2.85
2022-09-14T00:10:16.288Z,3.65
2022-09-14T00:12:20.575Z,3.25
2022-09-14T00:14:24.983Z,3.22
2022-09-14T00:16:34.003Z,4.22
2022-09-14T00:18:38.310Z,3.25
2022-09-14T00:20:42.500Z,3.38
2022-09-14T00:22:46.756Z,3.17
2022-09-14T00:24:51.078Z,2.70
2022-09-14T00:26:56.933Z,2.78
2022-09-14T00:29:04.737Z,2.70
2022-09-14T00:31:10.071Z,2.75
2022-09-14T00:33:15.201Z,2.53
2022-09-14T00:35:20.203Z,2.47
2022-09-14T00:37:24.473Z,2.15
2022-09-14T00:39:29.298Z,2.65
2022-09-14T00:41:35.643Z,2.20
2022-09-14T00:43:58.510Z,2.00
2022-09-14T00:46:03.567Z,2.00
2022-09-14T00:48:08.303Z,2.08
2022-09-14T00:50:13.380Z,1.90
2022-09-14T00:52:21.643Z,2.10
2022-09-14T00:54:26.409Z,1.80
2022-09-14T00:56:30.977Z,2.05
2022-09-14T00:58:35.312Z,1.73
2022-09-14T01:00:41.197Z,1.65
2022-09-14T01:02:46.555Z,1.80
2022-09-14T01:04:51.575Z,2.10
2022-09-14T01:07:04.131Z,2.00
2022-09-14T01:09:20.165Z,1.90
2022-09-14T01:11:46.385Z,2.00
2022-09-14T01:14:00.288Z,1.92
2022-09-14T01:16:16.936Z,1.95
2022-09-14T01:18:25.184Z,1.60
2022-09-14T01:20:33.755Z,1.80
2022-09-14T01:22:45.675Z,1.80
2022-09-14T01:24:54.554Z,2.20
2022-09-14T01:27:26.401Z,1.80
2022-09-14T01:29:35.455Z,1.90
2022-09-14T01:31:47.545Z,1.70
2022-09-14T01:33:59.889Z,1.83
2022-09-14T01:36:08.558Z,1.70
2022-09-14T01:38:19.527Z,1.75
2022-09-14T01:40:30.706Z,1.73
2022-09-14T01:42:37.993Z,1.67
2022-09-14T01:44:47.845Z,1.70
2022-09-14T01:46:56.183Z,1.67
2022-09-14T01:49:04.467Z,1.65
2022-09-14T01:51:14.001Z,2.30
2022-09-14T01:53:26.372Z,1.60
2022-09-14T01:55:35.109Z,1.40
2022-09-14T01:57:46.182Z,2.20
2022-09-14T01:59:54.181Z,1.50
2022-09-14T02:02:04.051Z,1.70
2022-09-14T02:04:13.177Z,1.67
2022-09-14T02:06:24.760Z,1.65
2022-09-14T02:08:31.035Z,1.80
2022-09-14T02:10:35.620Z,1.70
2022-09-14T02:12:42.412Z,1.85
2022-09-14T02:14:48.893Z,1.70
2022-09-14T02:16:53.384Z,1.85
2022-09-14T02:18:59.351Z,1.95
2022-09-14T02:21:07.579Z,2.00
2022-09-14T02:23:12.295Z,2.55
2022-09-14T02:25:16.851Z,2.20
2022-09-14T02:27:21.317Z,2.00
2022-09-14T02:29:27.232Z,2.15
2022-09-14T02:31:42.382Z,2.40
2022-09-14T02:33:58.534Z,2.72
2022-09-14T02:36:10.758Z,2.33
2022-09-14T02:38:21.881Z,2.60
2022-09-14T02:40:34.122Z,2.00
2022-09-14T02:42:45.616Z,2.50
2022-09-14T02:45:00.153Z,2.33
2022-09-14T02:47:08.225Z,1.92
2022-09-14T02:49:22.639Z,2.10
2022-09-14T02:51:32.020Z,2.20
2022-09-14T02:53:49.743Z,2.63
2022-09-14T02:55:58.406Z,2.40
2022-09-14T02:58:04.973Z,2.30
2022-09-14T03:00:11.860Z,2.63
2022-09-14T03:02:16.243Z,2.30
2022-09-14T03:04:24.153Z,2.53
2022-09-14T03:06:28.612Z,2.35
2022-09-14T03:08:33.664Z,2.30
2022-09-14T03:10:38.785Z,2.47
2022-09-14T03:12:43.134Z,2.78
2022-09-14T03:14:47.458Z,1.98
2022-09-14T03:16:53.382Z,2.50
2022-09-14T03:18:57.726Z,2.60
2022-09-14T03:21:06.656Z,2.50
2022-09-14T03:23:11.787Z,2.30
2022-09-14T03:25:16.612Z,2.58
2022-09-14T03:27:20.841Z,2.85
2022-09-14T03:29:25.343Z,2.40
2022-09-14T03:31:29.743Z,2.42
2022-09-14T03:33:36.460Z,2.33
2022-09-14T03:35:40.742Z,2.70
2022-09-14T03:37:45.921Z,2.17
2022-09-14T03:39:50.308Z,2.60
2022-09-14T03:41:57.383Z,2.53
2022-09-14T03:44:02.051Z,2.30
2022-09-14T03:46:07.946Z,2.75
2022-09-14T03:48:15.536Z,2.60
2022-09-14T03:50:24.129Z,2.72
2022-09-14T03:52:28.462Z,2.20
2022-09-14T03:54:34.077Z,2.33
2022-09-14T03:56:38.671Z,2.50
2022-09-14T03:58:43.572Z,2.55
2022-09-14T04:00:51.000Z,2.13
2022-09-14T04:02:56.127Z,2.38
2022-09-14T04:05:00.511Z,2.28
2022-09-14T04:07:06.426Z,2.58
2022-09-14T04:09:10.785Z,2.53
2022-09-14T04:11:16.994Z,2.75
2022-09-14T04:13:21.615Z,2.60
2022-09-14T04:15:26.187Z,2.45
2022-09-14T04:17:31.313Z,2.42
2022-09-14T04:19:37.816Z,2.67
2022-09-14T04:21:42.319Z,3.00
2022-09-14T04:24:13.401Z,2.85
2022-09-14T04:26:13.611Z,3.42
2022-09-14T04:28:20.579Z,3.10
2022-09-14T04:30:25.204Z,3.38
2022-09-14T04:32:34.103Z,3.60
2022-09-14T04:34:38.798Z,3.10
2022-09-14T04:36:43.776Z,3.78
2022-09-14T04:38:49.859Z,3.58
2022-09-14T04:40:54.185Z,3.55
2022-09-14T04:42:58.689Z,3.90
2022-09-14T04:45:02.867Z,3.58
2022-09-14T04:47:08.346Z,3.80
2022-09-14T04:49:13.106Z,3.30
2022-09-14T04:51:19.763Z,4.03
2022-09-14T04:53:23.957Z,4.53
2022-09-14T04:55:29.700Z,4.10
2022-09-14T04:57:34.017Z,4.40
2022-09-14T04:59:38.375Z,4.15
2022-09-14T05:01:44.815Z,3.63
2022-09-14T05:03:49.512Z,4.32
2022-09-14T05:05:53.997Z,4.10
2022-09-14T05:07:58.915Z,4.28
2022-09-14T05:10:03.199Z,4.13
2022-09-14T05:12:09.788Z,5.30
2022-09-14T05:14:15.439Z,4.90
2022-09-14T05:16:21.516Z,4.93
2022-09-14T05:18:25.931Z,5.40
2022-09-14T05:20:30.287Z,5.00
2022-09-14T05:22:34.739Z,5.13
2022-09-14T05:24:39.283Z,4.78
2022-09-14T05:26:44.977Z,5.30
2022-09-14T05:28:53.772Z,4.97
2022-09-14T05:31:00.190Z,4.75
2022-09-14T05:33:04.660Z,5.47
2022-09-14T05:35:09.826Z,5.05
2022-09-14T05:37:14.114Z,4.78
2022-09-14T05:39:23.020Z,4.60
2022-09-14T05:43:32.928Z,4.75
2022-09-14T05:45:38.982Z,3.95
2022-09-14T05:47:43.401Z,4.45
2022-09-14T05:49:47.936Z,4.43
2022-09-14T05:51:52.235Z,4.57
2022-09-14T05:53:58.077Z,4.88
2022-09-14T05:56:03.608Z,4.38
2022-09-14T05:58:08.169Z,5.00
2022-09-14T06:00:14.021Z,4.78
2022-09-14T06:02:21.126Z,4.50
2022-09-14T06:04:42.865Z,4.53
2022-09-14T06:07:07.952Z,4.82
2022-09-14T06:09:15.794Z,4.75
2022-09-14T06:11:22.018Z,4.97
2022-09-14T06:13:26.610Z,5.10
2022-09-14T06:15:31.136Z,4.30
2022-09-14T06:17:37.053Z,4.47
2022-09-14T06:19:42.182Z,3.72
2022-09-14T06:21:46.426Z,4.28
2022-09-14T06:23:52.287Z,4.90
2022-09-14T06:25:57.299Z,3.88
2022-09-14T06:28:02.099Z,4.53
2022-09-14T06:30:07.843Z,4.22
2022-09-14T06:32:12.335Z,3.35
2022-09-14T06:34:19.125Z,3.70
2022-09-14T06:36:25.615Z,4.10
2022-09-14T06:38:30.853Z,3.45
2022-09-14T06:40:35.525Z,4.13
2022-09-14T06:42:39.899Z,3.22
2022-09-14T06:44:44.459Z,3.72
2022-09-14T06:46:49.073Z,3.70
2022-09-14T06:48:56.648Z,3.72
2022-09-14T06:51:11.786Z,3.63
2022-09-14T06:53:15.989Z,3.83
2022-09-14T06:55:20.679Z,3.55
2022-09-14T06:57:27.735Z,3.58
2022-09-14T06:59:32.214Z,3.42
2022-09-14T07:01:37.204Z,4.13
2022-09-14T07:03:43.920Z,3.83
2022-09-14T07:05:48.305Z,3.35
2022-09-14T07:07:54.421Z,3.90
2022-09-14T07:09:58.649Z,3.08
2022-09-14T07:12:03.502Z,3.80
2022-09-14T07:14:10.030Z,3.45
2022-09-14T07:16:15.075Z,3.55
2022-09-14T07:18:19.968Z,3.95
2022-09-14T07:20:24.265Z,3.42
2022-09-14T07:22:28.920Z,3.33
2022-09-14T07:24:34.549Z,3.90
2022-09-14T07:26:41.907Z,4.03
2022-09-14T07:28:48.279Z,3.45
2022-09-14T07:30:55.875Z,3.90
2022-09-14T07:33:03.560Z,3.08
2022-09-14T07:35:08.702Z,2.55
2022-09-14T07:37:13.132Z,2.88
2022-09-14T07:39:19.000Z,3.28
2022-09-14T07:41:26.478Z,2.90
2022-09-14T07:43:30.899Z,2.38
2022-09-14T07:45:36.830Z,3.50
2022-09-14T07:47:41.297Z,3.80
2022-09-14T07:49:46.120Z,3.05
2022-09-14T07:51:50.347Z,2.85
2022-09-14T07:53:54.799Z,3.67
2022-09-14T07:56:01.710Z,2.85
2022-09-14T07:58:07.323Z,3.75
2022-09-14T08:00:12.807Z,3.40
2022-09-14T08:02:21.211Z,3.20
2022-09-14T08:04:25.318Z,3.13
2022-09-14T08:06:30.222Z,3.10
2022-09-14T08:08:37.186Z,2.75
2022-09-14T08:10:41.305Z,3.10
2022-09-14T08:12:45.402Z,3.92
2022-09-14T08:14:52.325Z,3.47
2022-09-14T08:16:56.563Z,3.17
2022-09-14T08:19:02.405Z,3.08
2022-09-14T08:21:08.282Z,2.70
2022-09-14T08:23:12.488Z,3.22
2022-09-14T08:25:16.618Z,2.60
2022-09-14T08:27:20.654Z,2.78
2022-09-14T08:29:27.474Z,2.80
2022-09-14T08:31:36.792Z,3.75
2022-09-14T08:33:43.392Z,4.55
2022-09-14T08:35:58.006Z,3.97
2022-09-14T08:38:02.483Z,5.35
2022-09-14T08:40:07.357Z,4.10
2022-09-14T08:42:16.995Z,4.47
2022-09-14T08:44:26.027Z,5.38
2022-09-14T08:46:35.454Z,4.38
2022-09-14T08:48:45.370Z,4.30
2022-09-14T08:50:53.890Z,4.85
2022-09-14T08:53:01.203Z,4.20
2022-09-14T08:55:27.589Z,5.30
2022-09-14T08:57:44.930Z,5.43
2022-09-14T08:59:55.630Z,4.85
2022-09-14T09:02:20.398Z,3.78
2022-09-14T09:04:36.763Z,3.70
2022-09-14T09:06:48.203Z,4.15
2022-09-14T09:09:03.325Z,4.97
2022-09-14T09:11:14.292Z,4.22
2022-09-14T09:13:23.634Z,4.47
2022-09-14T09:17:39.855Z,4.85
2022-09-14T09:19:55.659Z,4.20
2022-09-14T09:22:03.448Z,4.38
2022-09-14T09:24:27.942Z,4.60
2022-09-14T09:26:35.742Z,3.83
2022-09-14T09:28:57.957Z,4.65
2022-09-14T09:31:10.210Z,4.22
2022-09-14T09:33:51.744Z,4.05
2022-09-14T09:36:00.565Z,3.55
2022-09-14T09:38:15.890Z,3.50
2022-09-14T09:40:27.825Z,3.58
2022-09-14T09:42:32.535Z,4.85
2022-09-14T09:45:00.725Z,3.88
2022-09-14T09:47:09.593Z,4.30
2022-09-14T09:49:23.322Z,4.28
2022-09-14T09:51:31.073Z,3.80
2022-09-14T09:53:39.052Z,3.90
2022-09-14T09:55:47.991Z,3.67
2022-09-14T09:57:52.331Z,3.80
2022-09-14T10:00:13.442Z,3.75
2022-09-14T10:02:24.930Z,3.78
2022-09-14T10:04:30.891Z,3.75
2022-09-14T10:06:43.983Z,3.80
2022-09-14T10:08:50.386Z,3.67
2022-09-14T10:10:54.714Z,3.85
2022-09-14T10:12:58.980Z,4.15
2022-09-14T10:15:22.257Z,3.42
2022-09-14T10:17:26.681Z,3.42
2022-09-14T10:19:33.583Z,3.38
2022-09-14T10:21:37.934Z,4.43
2022-09-14T10:23:42.421Z,4.05
2022-09-14T10:25:47.497Z,3.70
2022-09-14T10:28:00.185Z,3.33
2022-09-14T10:30:07.511Z,3.22
2022-09-14T10:32:26.509Z,2.90
2022-09-14T10:34:32.806Z,3.67
2022-09-14T10:36:45.164Z,2.85
2022-09-14T10:38:55.248Z,3.00
2022-09-14T10:41:10.901Z,2.85
2022-09-14T10:43:20.583Z,2.97
2022-09-14T10:48:00.432Z,2.95
2022-09-14T10:50:20.996Z,2.90
2022-09-14T10:52:46.793Z,3.20
2022-09-14T10:55:15.644Z,3.58
2022-09-14T10:57:30.311Z,3.28
2022-09-14T10:59:47.590Z,3.00
2022-09-14T11:02:04.908Z,2.88
2022-09-14T11:04:26.022Z,3.17
2022-09-14T11:06:45.090Z,3.30
2022-09-14T11:08:56.018Z,3.10
2022-09-14T11:11:23.775Z,2.40
2022-09-14T11:13:54.311Z,3.10
2022-09-14T11:16:13.057Z,2.95
2022-09-14T11:18:29.149Z,2.95
2022-09-14T11:20:43.069Z,2.78
2022-09-14T11:22:56.349Z,2.72
2022-09-14T11:25:04.772Z,2.80
2022-09-14T11:27:17.736Z,2.97
2022-09-14T11:29:27.662Z,2.35
2022-09-14T11:32:19.298Z,2.72
2022-09-14T11:34:25.980Z,2.97
2022-09-14T11:36:35.116Z,3.20
2022-09-14T11:38:47.516Z,3.28
2022-09-14T11:40:57.448Z,3.13
2022-09-14T11:43:08.172Z,3.05
2022-09-14T11:45:20.115Z,2.53
2022-09-14T11:47:24.896Z,3.00
2022-09-14T11:49:32.994Z,2.47
2022-09-14T11:51:41.898Z,2.90
2022-09-14T11:53:51.802Z,2.30
2022-09-14T11:55:56.691Z,2.60
2022-09-14T11:58:02.422Z,2.60
2022-09-14T12:00:12.600Z,2.75
2022-09-14T12:02:53.266Z,2.88
2022-09-14T12:05:27.007Z,2.80
2022-09-14T12:08:28.026Z,2.50
2022-09-14T12:11:24.160Z,2.47
2022-09-14T12:13:35.177Z,2.78
2022-09-14T12:15:41.231Z,2.40
2022-09-14T12:17:46.579Z,2.67
2022-09-14T12:19:53.059Z,2.50
2022-09-14T12:21:57.685Z,2.38
2022-09-14T12:24:16.017Z,2.60
2022-09-14T12:26:39.748Z,2.30
2022-09-14T12:28:49.147Z,2.40
2022-09-14T12:31:15.308Z,2.40
2022-09-14T12:33:44.160Z,2.80
2022-09-14T12:35:48.848Z,2.40
2022-09-14T12:37:53.273Z,2.28
2022-09-14T12:40:35.322Z,2.35
2022-09-14T12:42:41.473Z,2.72
2022-09-14T12:44:45.828Z,2.90
2022-09-14T12:46:50.251Z,2.70
2022-09-14T12:49:03.324Z,2.30
2022-09-14T12:51:07.859Z,2.70
2022-09-14T12:53:32.515Z,2.28
2022-09-14T12:55:48.740Z,2.65
2022-09-14T12:58:03.924Z,2.47
2022-09-14T13:00:14.732Z,2.58
2022-09-14T13:02:43.319Z,2.25
2022-09-14T13:04:48.264Z,2.30
2022-09-14T13:06:53.700Z,2.90
2022-09-14T13:09:00.548Z,2.60
2022-09-14T13:11:05.241Z,2.00
2022-09-14T13:13:18.151Z,2.78
2022-09-14T13:15:31.577Z,2.50
2022-09-14T13:17:36.156Z,2.33
2022-09-14T13:19:43.535Z,2.95
2022-09-14T13:21:49.629Z,3.20
2022-09-14T13:23:54.202Z,2.60
2022-09-14T13:25:59.436Z,2.70
2022-09-14T13:28:06.390Z,2.78
2022-09-14T13:30:22.488Z,2.55
2022-09-14T13:32:27.964Z,1.95
2022-09-14T13:34:36.638Z,2.40
2022-09-14T13:36:45.049Z,2.38
2022-09-14T13:38:50.340Z,2.28
2022-09-14T13:40:59.084Z,2.30
2022-09-14T13:43:04.191Z,2.42
2022-09-14T13:45:09.927Z,2.20
2022-09-14T13:47:18.053Z,2.08
2022-09-14T13:49:22.507Z,2.20
2022-09-14T13:51:29.914Z,2.40
2022-09-14T13:53:42.928Z,2.30
2022-09-14T13:55:47.662Z,2.47
2022-09-14T13:58:23.425Z,2.00
2022-09-14T14:00:28.174Z,1.98
2022-09-14T14:02:41.885Z,2.63
2022-09-14T14:04:50.199Z,2.30
2022-09-14T14:07:07.011Z,2.55
2022-09-14T14:09:12.564Z,2.17
2022-09-14T14:11:16.958Z,2.75
2022-09-14T14:13:26.719Z,2.40
2022-09-14T14:17:44.836Z,1.77
2022-09-14T14:19:50.020Z,1.95
2022-09-14T14:22:13.230Z,1.77
2022-09-14T14:24:28.484Z,2.40
2022-09-14T14:26:32.921Z,2.00
2022-09-14T14:28:37.527Z,1.73
2022-09-14T14:30:44.561Z,1.85
2022-09-14T14:32:53.071Z,2.15
2022-09-14T14:34:57.457Z,2.22
2022-09-14T14:37:02.829Z,2.03
2022-09-14T14:39:07.414Z,1.75
2022-09-14T14:41:16.198Z,2.00
2022-09-14T14:43:22.477Z,1.92
2022-09-14T14:45:28.294Z,1.75
2022-09-14T14:47:33.544Z,1.88
2022-09-14T14:49:39.289Z,1.50
2022-09-14T14:51:43.673Z,1.65
2022-09-14T14:53:48.063Z,1.70
2022-09-14T14:55:53.389Z,1.98
2022-09-14T14:58:01.807Z,2.00
2022-09-14T15:00:09.879Z,2.20
2022-09-14T15:02:14.290Z,1.90
2022-09-14T15:04:19.135Z,2.00
2022-09-14T15:06:28.651Z,2.38
2022-09-14T15:08:33.115Z,1.52
2022-09-14T15:10:37.706Z,1.70
2022-09-14T15:12:42.819Z,1.80
2022-09-14T15:14:47.414Z,2.13
2022-09-14T15:16:55.250Z,2.25
2022-09-14T15:18:59.697Z,1.92
2022-09-14T15:21:04.125Z,2.42
2022-09-14T15:23:10.572Z,1.90
2022-09-14T15:25:16.266Z,2.28
2022-09-14T15:27:20.599Z,1.95
2022-09-14T15:29:25.123Z,2.10
2022-09-14T15:31:29.974Z,2.55
2022-09-14T15:33:35.014Z,2.03
2022-09-14T15:35:39.555Z,2.28
2022-09-14T15:37:44.263Z,2.35
2022-09-14T15:39:52.257Z,2.63
2022-09-14T15:41:57.677Z,2.40
2022-09-14T15:44:02.605Z,2.80
2022-09-14T15:46:07.605Z,1.90
2022-09-14T15:48:15.499Z,2.42
2022-09-14T15:50:20.289Z,2.50
2022-09-14T15:52:33.458Z,2.10
2022-09-14T15:54:39.053Z,2.20
2022-09-14T15:56:49.391Z,2.80
2022-09-14T15:58:54.060Z,2.30
2022-09-14T16:00:58.771Z,2.78
2022-09-14T16:03:03.862Z,3.15
2022-09-14T16:05:08.921Z,3.40
2022-09-14T16:07:13.886Z,2.47
2022-09-14T16:09:22.443Z,2.72
2022-09-14T16:11:27.310Z,2.67
2022-09-14T16:13:34.085Z,2.38
2022-09-14T16:15:46.887Z,2.65
2022-09-14T16:17:52.985Z,2.60
2022-09-14T16:19:57.518Z,2.50
2022-09-14T16:22:01.966Z,2.95
2022-09-14T16:24:10.469Z,2.22
2022-09-14T16:26:17.503Z,2.47
2022-09-14T16:28:22.435Z,2.63
2022-09-14T16:30:28.738Z,2.67
2022-09-14T16:32:33.691Z,2.92
2022-09-14T16:34:38.206Z,2.13
2022-09-14T16:36:43.841Z,2.75
2022-09-14T16:38:53.793Z,3.55
2022-09-14T16:41:19.493Z,2.50
2022-09-14T16:43:29.138Z,2.55
2022-09-14T16:48:50.234Z,3.67
2022-09-14T16:50:55.614Z,3.45
2022-09-14T16:53:00.364Z,6.13
2022-09-14T16:55:05.037Z,5.32
2022-09-14T16:57:09.953Z,5.75
2022-09-14T16:59:15.786Z,6.18
2022-09-14T17:01:25.061Z,6.32
2022-09-14T17:03:31.858Z,7.18
2022-09-14T17:05:36.479Z,7.35
2022-09-14T17:07:40.893Z,7.60
2022-09-14T17:09:45.613Z,7.25
2022-09-14T17:11:50.507Z,7.28
2022-09-14T17:13:55.222Z,8.45
2022-09-14T17:16:03.179Z,8.50
2022-09-14T17:18:09.427Z,8.75
2022-09-14T17:20:13.926Z,6.95
2022-09-14T17:22:18.279Z,5.70
2022-09-14T17:24:23.037Z,5.10
2022-09-14T17:26:27.630Z,4.80
2022-09-14T17:28:32.080Z,5.15
2022-09-14T17:30:36.857Z,4.70
2022-09-14T17:32:41.341Z,4.75
2022-09-14T17:34:47.437Z,5.10
2022-09-14T17:36:51.826Z,5.35
2022-09-14T17:38:58.074Z,5.35
2022-09-14T17:41:05.134Z,5.45
2022-09-14T17:43:09.879Z,4.55
2022-09-14T17:45:14.825Z,5.20
2022-09-14T17:47:19.440Z,5.20
2022-09-14T17:49:24.466Z,5.97
2022-09-14T17:51:31.521Z,5.85
2022-09-14T17:53:41.163Z,5.07
2022-09-14T17:55:45.929Z,5.05
2022-09-14T17:57:50.479Z,5.40
2022-09-14T17:59:55.054Z,5.00
2022-09-14T18:02:12.036Z,4.82
2022-09-14T18:04:17.294Z,5.38
2022-09-14T18:06:26.093Z,5.32
2022-09-14T18:08:40.689Z,6.00
2022-09-14T18:10:45.795Z,6.18
2022-09-14T18:12:53.280Z,8.18
2022-09-14T18:14:58.324Z,7.78
2022-09-14T18:17:03.280Z,9.40
2022-09-14T18:19:08.024Z,11.15
2022-09-14T18:21:15.037Z,13.65
2022-09-14T18:23:22.476Z,12.70
2022-09-14T18:25:29.915Z,12.57
2022-09-14T18:27:34.622Z,13.02
2022-09-14T18:37:15.498Z,10.98
2022-09-14T18:39:21.615Z,11.15
2022-09-14T18:41:29.703Z,9.23
2022-09-14T18:43:34.941Z,10.93
2022-09-14T18:45:39.674Z,11.52
2022-09-14T18:47:44.323Z,10.68
2022-09-14T18:49:49.715Z,9.32
2022-09-14T18:51:54.130Z,8.35
2022-09-14T18:53:59.198Z,7.80
2022-09-14T18:56:16.893Z,8.40
2022-09-14T18:58:23.289Z,9.77
2022-09-14T19:00:28.322Z,9.38
2022-09-14T19:02:32.749Z,9.43
2022-09-14T19:04:38.585Z,8.13
2022-09-14T19:06:44.498Z,8.18
2022-09-14T19:08:49.433Z,7.93
2022-09-14T19:10:54.345Z,7.28
2022-09-14T19:12:59.558Z,7.78
2022-09-14T19:15:06.612Z,8.65
2022-09-14T19:17:11.617Z,7.95
2022-09-14T19:19:17.713Z,9.32
2022-09-14T19:21:24.261Z,8.30
2022-09-14T19:23:28.837Z,7.50
2022-09-14T19:25:37.300Z,8.00
2022-09-14T19:27:42.215Z,8.77
2022-09-14T19:29:46.682Z,9.15
2022-09-14T19:31:54.010Z,9.35
2022-09-14T19:33:58.645Z,9.77
2022-09-14T19:36:10.653Z,10.35
2022-09-14T19:38:17.308Z,10.45
2022-09-14T19:40:24.940Z,9.27
2022-09-14T19:42:29.615Z,10.00
2022-09-14T19:44:34.397Z,8.98
2022-09-14T19:46:40.060Z,8.27
2022-09-14T19:48:48.316Z,8.52
2022-09-14T19:50:53.440Z,8.43
2022-09-14T19:53:02.459Z,7.88
2022-09-14T19:55:11.796Z,8.30
2022-09-14T19:57:16.468Z,6.97
2022-09-14T19:59:24.210Z,7.35
2022-09-14T20:01:30.750Z,7.18
2022-09-14T20:03:36.962Z,7.43
2022-09-14T20:05:42.894Z,7.78
2022-09-14T20:07:48.445Z,7.60
2022-09-14T20:09:52.893Z,8.30
2022-09-14T20:11:59.515Z,9.00
2022-09-14T20:14:05.524Z,9.20
2022-09-14T20:16:14.403Z,8.95
2022-09-14T20:18:19.127Z,8.80
2022-09-14T20:20:23.474Z,8.20
2022-09-14T20:22:29.326Z,8.20
2022-09-14T20:24:33.538Z,7.68
2022-09-14T20:26:37.865Z,7.95
2022-09-14T20:28:43.375Z,7.43
2022-09-14T20:30:58.635Z,15.27
2022-09-14T20:33:03.366Z,25.33
2022-09-14T20:35:11.173Z,10.18
2022-09-14T20:37:16.070Z,8.20
2022-09-14T20:39:23.187Z,6.97
2022-09-14T20:41:37.745Z,7.55
2022-09-14T20:43:46.550Z,6.82
2022-09-14T20:45:51.326Z,6.20
2022-09-14T20:47:55.897Z,6.70
2022-09-14T20:50:01.783Z,6.57
2022-09-14T20:52:07.858Z,6.72
2022-09-14T20:54:14.327Z,6.85
2022-09-14T20:56:22.253Z,6.47
2022-09-14T20:58:26.531Z,6.88
2022-09-14T21:00:30.788Z,7.38
2022-09-14T21:02:35.322Z,6.30
2022-09-14T21:04:39.790Z,6.95
2022-09-14T21:06:46.489Z,7.50
2022-09-14T21:08:51.048Z,6.60
2022-09-14T21:10:55.689Z,6.50
2022-09-14T21:13:02.257Z,6.43
2022-09-14T21:15:07.050Z,6.05
2022-09-14T21:17:11.381Z,6.13
2022-09-14T21:19:20.474Z,7.00
2022-09-14T21:21:25.414Z,6.67
2022-09-14T21:23:29.863Z,6.53
2022-09-14T21:25:34.627Z,6.10
2022-09-14T21:27:39.145Z,6.43
2022-09-14T21:29:44.951Z,6.45
2022-09-14T21:31:49.944Z,6.72
2022-09-14T21:33:58.240Z,6.57
2022-09-14T21:36:07.128Z,7.45
2022-09-14T21:38:16.023Z,6.45
2022-09-14T21:40:22.270Z,6.32
2022-09-14T21:42:27.098Z,6.25
2022-09-14T21:44:32.237Z,6.22
2022-09-14T21:46:38.489Z,6.60
2022-09-14T21:48:43.114Z,7.25
2022-09-14T21:50:47.657Z,7.55
2022-09-14T21:52:51.970Z,6.53
2022-09-14T21:54:56.522Z,6.53
2022-09-14T21:57:00.924Z,6.22
2022-09-14T21:59:08.824Z,6.80
2022-09-14T22:01:13.959Z,7.03
2022-09-14T22:03:20.082Z,6.88
2022-09-14T22:05:24.348Z,6.38
2022-09-14T22:07:29.283Z,6.65
2022-09-14T22:09:33.541Z,6.40
2022-09-14T22:11:39.971Z,6.82
2022-09-14T22:13:44.367Z,6.55
2022-09-14T22:15:48.913Z,6.72
2022-09-14T22:17:53.463Z,6.57
2022-09-14T22:20:00.771Z,7.75
2022-09-14T22:22:05.617Z,7.80
2022-09-14T22:24:14.038Z,6.95
2022-09-14T22:26:20.202Z,7.03
2022-09-14T22:28:24.838Z,6.82
2022-09-14T22:30:29.422Z,6.75
2022-09-14T22:32:33.809Z,7.50
2022-09-14T22:34:39.101Z,7.10
2022-09-14T22:36:45.618Z,8.07
2022-09-14T22:38:50.387Z,6.80
2022-09-14T22:40:57.987Z,6.63
2022-09-14T22:43:02.330Z,6.22
2022-09-14T22:45:07.347Z,7.00
2022-09-14T22:47:12.721Z,6.75
2022-09-14T22:49:17.873Z,6.78
2022-09-14T22:51:26.053Z,7.70
2022-09-14T22:53:35.146Z,7.20
2022-09-14T22:55:39.799Z,7.45
2022-09-14T22:57:44.274Z,7.15
2022-09-14T22:59:48.890Z,7.22
2022-09-14T23:01:53.214Z,6.05
2022-09-14T23:03:59.558Z,7.18
2022-09-14T23:06:04.534Z,6.53
2022-09-14T23:08:10.200Z,6.70
2022-09-14T23:10:16.244Z,6.97
2022-09-14T23:12:20.821Z,7.45
2022-09-14T23:14:25.181Z,6.85
2022-09-14T23:16:31.095Z,7.68
2022-09-14T23:18:36.589Z,7.55
2022-09-14T23:20:42.917Z,7.90
2022-09-14T23:22:47.483Z,7.20
2022-09-14T23:24:51.960Z,7.55
2022-09-14T23:26:57.684Z,7.38
2022-09-14T23:29:06.135Z,7.28
2022-09-14T23:31:10.787Z,7.57
2022-09-14T23:33:15.287Z,7.30
2022-09-14T23:35:20.233Z,7.60
2022-09-14T23:37:25.445Z,7.22
2022-09-14T23:39:29.827Z,7.22
2022-09-14T23:41:34.786Z,7.40
2022-09-14T23:43:41.073Z,7.35
2022-09-14T23:45:46.472Z,8.80
2022-09-14T23:47:50.775Z,7.07
2022-09-14T23:49:58.166Z,7.72
2022-09-14T23:52:04.226Z,7.18
2022-09-14T23:54:09.496Z,7.30
2022-09-14T23:56:13.912Z,6.90
2022-09-14T23:58:18.265Z,7.00
